sensor_id;sensor_type;location;lat;lon;timestamp;P1;durP1;ratioP1;P2;durP2;ratioP2
17482;SDS011;8858;52.308;20.994;2023-06-22T00:02:21;28.95;;;26.38;;
17482;SDS011;8858;52.308;20.994;2023-06-22T00:04:51;28.85;;;26.38;;
17482;SDS011;8858;52.308;20.994;2023-06-22T00:07:19;29.67;;;27.13;;
17482;SDS011;8858;52.308;20.994;2023-06-22T00:09:50;28.35;;;26.02;;
17482;SDS011;8858;52.308;20.994;2023-06-22T00:12:18;27.92;;;25.73;;
17482;SDS011;8858;52.308;20.994;2023-06-22T00:14:50;27.42;;;25.13;;
17482;SDS011;8858;52.308;20.994;2023-06-22T00:17:19;28.10;;;25.65;;
17482;SDS011;8858;52.308;20.994;2023-06-22T00:19:49;27.98;;;25.52;;
17482;SDS011;8858;52.308;20.994;2023-06-22T00:22:20;28.92;;;26.38;;
17482;SDS011;8858;52.308;20.994;2023-06-22T00:24:55;29.35;;;27.00;;
17482;SDS011;8858;52.308;20.994;2023-06-22T00:27:27;27.52;;;25.30;;
17482;SDS011;8858;52.308;20.994;2023-06-22T00:29:57;28.90;;;26.55;;
17482;SDS011;8858;52.308;20.994;2023-06-22T00:32:28;28.23;;;26.00;;
17482;SDS011;8858;52.308;20.994;2023-06-22T00:34:57;28.48;;;26.17;;
17482;SDS011;8858;52.308;20.994;2023-06-22T00:37:29;29.63;;;27.20;;
17482;SDS011;8858;52.308;20.994;2023-06-22T00:39:58;29.63;;;27.27;;
17482;SDS011;8858;52.308;20.994;2023-06-22T00:42:26;28.85;;;26.50;;
17482;SDS011;8858;52.308;20.994;2023-06-22T00:44:55;30.05;;;27.38;;
17482;SDS011;8858;52.308;20.994;2023-06-22T00:47:24;29.90;;;27.23;;
17482;SDS011;8858;52.308;20.994;2023-06-22T00:49:55;29.98;;;27.35;;
17482;SDS011;8858;52.308;20.994;2023-06-22T00:52:24;30.55;;;27.90;;
17482;SDS011;8858;52.308;20.994;2023-06-22T00:54:56;29.27;;;26.88;;
17482;SDS011;8858;52.308;20.994;2023-06-22T00:57:31;29.90;;;27.33;;
17482;SDS011;8858;52.308;20.994;2023-06-22T01:00:00;30.52;;;27.92;;
17482;SDS011;8858;52.308;20.994;2023-06-22T01:02:32;30.52;;;27.73;;
17482;SDS011;8858;52.308;20.994;2023-06-22T01:05:04;29.70;;;27.00;;
17482;SDS011;8858;52.308;20.994;2023-06-22T01:07:35;31.08;;;28.45;;
17482;SDS011;8858;52.308;20.994;2023-06-22T01:10:08;30.13;;;27.70;;
17482;SDS011;8858;52.308;20.994;2023-06-22T01:12:42;31.00;;;28.35;;
17482;SDS011;8858;52.308;20.994;2023-06-22T01:15:18;30.02;;;27.45;;
17482;SDS011;8858;52.308;20.994;2023-06-22T01:17:50;30.35;;;27.85;;
17482;SDS011;8858;52.308;20.994;2023-06-22T01:20:23;31.88;;;29.05;;
17482;SDS011;8858;52.308;20.994;2023-06-22T01:22:58;31.40;;;28.63;;
17482;SDS011;8858;52.308;20.994;2023-06-22T01:25:42;31.80;;;29.00;;
17482;SDS011;8858;52.308;20.994;2023-06-22T01:28:23;32.55;;;29.73;;
17482;SDS011;8858;52.308;20.994;2023-06-22T01:31:08;31.13;;;28.38;;
17482;SDS011;8858;52.308;20.994;2023-06-22T01:33:39;31.80;;;29.10;;
17482;SDS011;8858;52.308;20.994;2023-06-22T01:36:12;31.65;;;29.05;;
17482;SDS011;8858;52.308;20.994;2023-06-22T01:38:45;31.20;;;28.50;;
17482;SDS011;8858;52.308;20.994;2023-06-22T01:41:17;31.27;;;28.58;;
17482;SDS011;8858;52.308;20.994;2023-06-22T01:43:48;30.10;;;27.13;;
17482;SDS011;8858;52.308;20.994;2023-06-22T01:46:19;32.60;;;29.80;;
17482;SDS011;8858;52.308;20.994;2023-06-22T01:48:50;31.80;;;29.02;;
17482;SDS011;8858;52.308;20.994;2023-06-22T01:51:21;32.78;;;29.85;;
17482;SDS011;8858;52.308;20.994;2023-06-22T01:53:50;31.10;;;28.55;;
17482;SDS011;8858;52.308;20.994;2023-06-22T01:56:19;32.28;;;28.90;;
17482;SDS011;8858;52.308;20.994;2023-06-22T01:58:53;30.85;;;28.40;;
17482;SDS011;8858;52.308;20.994;2023-06-22T02:01:30;33.88;;;30.70;;
17482;SDS011;8858;52.308;20.994;2023-06-22T02:04:07;31.17;;;28.67;;
17482;SDS011;8858;52.308;20.994;2023-06-22T02:06:42;31.52;;;28.63;;
17482;SDS011;8858;52.308;20.994;2023-06-22T02:09:16;34.65;;;31.33;;
17482;SDS011;8858;52.308;20.994;2023-06-22T02:11:48;32.92;;;30.02;;
17482;SDS011;8858;52.308;20.994;2023-06-22T02:14:26;32.90;;;30.13;;
17482;SDS011;8858;52.308;20.994;2023-06-22T02:16:56;34.85;;;31.83;;
17482;SDS011;8858;52.308;20.994;2023-06-22T02:19:26;35.45;;;32.55;;
17482;SDS011;8858;52.308;20.994;2023-06-22T02:22:00;35.22;;;32.22;;
17482;SDS011;8858;52.308;20.994;2023-06-22T02:24:28;37.38;;;33.95;;
17482;SDS011;8858;52.308;20.994;2023-06-22T02:26:58;36.45;;;33.25;;
17482;SDS011;8858;52.308;20.994;2023-06-22T02:29:28;40.97;;;37.17;;
17482;SDS011;8858;52.308;20.994;2023-06-22T02:31:58;40.08;;;36.50;;
17482;SDS011;8858;52.308;20.994;2023-06-22T02:34:26;43.00;;;38.97;;
17482;SDS011;8858;52.308;20.994;2023-06-22T02:36:55;44.15;;;40.20;;
17482;SDS011;8858;52.308;20.994;2023-06-22T02:39:26;44.75;;;40.83;;
17482;SDS011;8858;52.308;20.994;2023-06-22T02:41:54;46.20;;;42.10;;
17482;SDS011;8858;52.308;20.994;2023-06-22T02:44:26;48.28;;;43.75;;
17482;SDS011;8858;52.308;20.994;2023-06-22T02:46:55;47.00;;;42.80;;
17482;SDS011;8858;52.308;20.994;2023-06-22T02:49:24;47.28;;;42.97;;
17482;SDS011;8858;52.308;20.994;2023-06-22T02:51:54;49.55;;;44.63;;
17482;SDS011;8858;52.308;20.994;2023-06-22T02:54:22;51.03;;;46.15;;
17482;SDS011;8858;52.308;20.994;2023-06-22T02:56:55;50.95;;;46.47;;
17482;SDS011;8858;52.308;20.994;2023-06-22T02:59:23;50.20;;;45.70;;
17482;SDS011;8858;52.308;20.994;2023-06-22T03:02:00;50.20;;;45.60;;
17482;SDS011;8858;52.308;20.994;2023-06-22T03:04:31;51.15;;;46.45;;
17482;SDS011;8858;52.308;20.994;2023-06-22T03:06:59;51.25;;;46.25;;
17482;SDS011;8858;52.308;20.994;2023-06-22T03:09:30;51.53;;;46.85;;
17482;SDS011;8858;52.308;20.994;2023-06-22T03:11:59;51.38;;;46.35;;
17482;SDS011;8858;52.308;20.994;2023-06-22T03:14:52;51.28;;;46.58;;
17482;SDS011;8858;52.308;20.994;2023-06-22T03:17:22;51.10;;;46.50;;
17482;SDS011;8858;52.308;20.994;2023-06-22T03:19:51;52.83;;;47.92;;
17482;SDS011;8858;52.308;20.994;2023-06-22T03:22:19;49.65;;;45.28;;
17482;SDS011;8858;52.308;20.994;2023-06-22T03:24:48;52.58;;;47.55;;
17482;SDS011;8858;52.308;20.994;2023-06-22T03:27:16;50.55;;;45.92;;
17482;SDS011;8858;52.308;20.994;2023-06-22T03:29:45;49.42;;;44.83;;
17482;SDS011;8858;52.308;20.994;2023-06-22T03:32:15;50.15;;;45.55;;
17482;SDS011;8858;52.308;20.994;2023-06-22T03:34:45;50.22;;;45.70;;
17482;SDS011;8858;52.308;20.994;2023-06-22T03:37:15;49.38;;;44.92;;
17482;SDS011;8858;52.308;20.994;2023-06-22T03:39:45;48.22;;;43.92;;
17482;SDS011;8858;52.308;20.994;2023-06-22T03:42:14;47.15;;;42.95;;
17482;SDS011;8858;52.308;20.994;2023-06-22T03:44:43;50.08;;;45.35;;
17482;SDS011;8858;52.308;20.994;2023-06-22T03:47:12;47.17;;;43.03;;
17482;SDS011;8858;52.308;20.994;2023-06-22T03:49:46;47.88;;;43.55;;
17482;SDS011;8858;52.308;20.994;2023-06-22T03:52:15;47.60;;;43.20;;
17482;SDS011;8858;52.308;20.994;2023-06-22T03:54:43;46.63;;;42.42;;
17482;SDS011;8858;52.308;20.994;2023-06-22T03:57:12;47.80;;;43.47;;
17482;SDS011;8858;52.308;20.994;2023-06-22T03:59:40;47.08;;;42.90;;
17482;SDS011;8858;52.308;20.994;2023-06-22T04:02:10;45.88;;;41.65;;
17482;SDS011;8858;52.308;20.994;2023-06-22T04:04:40;44.05;;;40.05;;
17482;SDS011;8858;52.308;20.994;2023-06-22T04:07:09;42.92;;;38.83;;
17482;SDS011;8858;52.308;20.994;2023-06-22T04:09:39;41.95;;;38.33;;
17482;SDS011;8858;52.308;20.994;2023-06-22T04:12:08;40.78;;;37.28;;
17482;SDS011;8858;52.308;20.994;2023-06-22T04:14:39;41.05;;;37.35;;
17482;SDS011;8858;52.308;20.994;2023-06-22T04:17:08;42.35;;;38.35;;
17482;SDS011;8858;52.308;20.994;2023-06-22T04:19:36;39.97;;;36.22;;
17482;SDS011;8858;52.308;20.994;2023-06-22T04:22:07;39.28;;;35.67;;
17482;SDS011;8858;52.308;20.994;2023-06-22T04:24:41;40.33;;;36.67;;
17482;SDS011;8858;52.308;20.994;2023-06-22T04:27:09;39.72;;;35.33;;
17482;SDS011;8858;52.308;20.994;2023-06-22T04:29:37;38.88;;;35.28;;
17482;SDS011;8858;52.308;20.994;2023-06-22T04:32:15;39.25;;;35.40;;
17482;SDS011;8858;52.308;20.994;2023-06-22T04:34:44;38.55;;;34.78;;
17482;SDS011;8858;52.308;20.994;2023-06-22T04:37:13;37.42;;;34.15;;
17482;SDS011;8858;52.308;20.994;2023-06-22T04:39:45;37.00;;;33.58;;
17482;SDS011;8858;52.308;20.994;2023-06-22T04:42:13;38.95;;;34.92;;
17482;SDS011;8858;52.308;20.994;2023-06-22T04:44:43;37.53;;;33.90;;
17482;SDS011;8858;52.308;20.994;2023-06-22T04:47:11;37.83;;;34.33;;
17482;SDS011;8858;52.308;20.994;2023-06-22T04:49:40;35.38;;;32.08;;
17482;SDS011;8858;52.308;20.994;2023-06-22T04:52:10;36.90;;;33.47;;
17482;SDS011;8858;52.308;20.994;2023-06-22T04:54:41;35.85;;;32.45;;
17482;SDS011;8858;52.308;20.994;2023-06-22T04:57:14;35.08;;;31.88;;
17482;SDS011;8858;52.308;20.994;2023-06-22T04:59:42;34.38;;;31.23;;
17482;SDS011;8858;52.308;20.994;2023-06-22T05:02:10;32.95;;;29.77;;
17482;SDS011;8858;52.308;20.994;2023-06-22T05:04:41;33.58;;;30.25;;
17482;SDS011;8858;52.308;20.994;2023-06-22T05:07:09;33.60;;;30.35;;
17482;SDS011;8858;52.308;20.994;2023-06-22T05:09:38;33.80;;;30.70;;
17482;SDS011;8858;52.308;20.994;2023-06-22T05:12:08;34.42;;;31.02;;
17482;SDS011;8858;52.308;20.994;2023-06-22T05:14:38;33.13;;;29.98;;
17482;SDS011;8858;52.308;20.994;2023-06-22T05:17:07;30.05;;;27.05;;
17482;SDS011;8858;52.308;20.994;2023-06-22T05:19:41;30.65;;;27.98;;
17482;SDS011;8858;52.308;20.994;2023-06-22T05:22:14;32.20;;;29.17;;
17482;SDS011;8858;52.308;20.994;2023-06-22T05:24:43;30.95;;;28.25;;
17482;SDS011;8858;52.308;20.994;2023-06-22T05:27:12;31.30;;;28.45;;
17482;SDS011;8858;52.308;20.994;2023-06-22T05:29:41;30.35;;;27.52;;
17482;SDS011;8858;52.308;20.994;2023-06-22T05:32:10;28.02;;;25.52;;
17482;SDS011;8858;52.308;20.994;2023-06-22T05:34:38;28.27;;;25.38;;
17482;SDS011;8858;52.308;20.994;2023-06-22T05:37:06;28.35;;;25.42;;
17482;SDS011;8858;52.308;20.994;2023-06-22T05:39:37;26.33;;;23.95;;
17482;SDS011;8858;52.308;20.994;2023-06-22T05:42:05;26.83;;;24.42;;
17482;SDS011;8858;52.308;20.994;2023-06-22T05:44:38;25.63;;;23.42;;
17482;SDS011;8858;52.308;20.994;2023-06-22T05:47:10;27.08;;;24.65;;
17482;SDS011;8858;52.308;20.994;2023-06-22T05:49:38;25.70;;;23.50;;
17482;SDS011;8858;52.308;20.994;2023-06-22T05:52:07;24.55;;;22.33;;
17482;SDS011;8858;52.308;20.994;2023-06-22T05:54:35;23.02;;;21.02;;
17482;SDS011;8858;52.308;20.994;2023-06-22T05:57:05;23.83;;;21.73;;
17482;SDS011;8858;52.308;20.994;2023-06-22T05:59:33;23.95;;;21.65;;
17482;SDS011;8858;52.308;20.994;2023-06-22T06:02:03;24.05;;;21.92;;
17482;SDS011;8858;52.308;20.994;2023-06-22T06:04:32;23.50;;;21.30;;
17482;SDS011;8858;52.308;20.994;2023-06-22T06:07:01;22.42;;;20.25;;
17482;SDS011;8858;52.308;20.994;2023-06-22T06:09:29;22.23;;;20.27;;
17482;SDS011;8858;52.308;20.994;2023-06-22T06:11:59;22.77;;;20.42;;
17482;SDS011;8858;52.308;20.994;2023-06-22T06:14:29;23.42;;;20.95;;
17482;SDS011;8858;52.308;20.994;2023-06-22T06:16:57;21.38;;;19.48;;
17482;SDS011;8858;52.308;20.994;2023-06-22T06:19:29;21.85;;;19.63;;
17482;SDS011;8858;52.308;20.994;2023-06-22T06:21:57;21.20;;;19.30;;
17482;SDS011;8858;52.308;20.994;2023-06-22T06:24:27;20.35;;;18.65;;
17482;SDS011;8858;52.308;20.994;2023-06-22T06:26:56;20.60;;;18.65;;
17482;SDS011;8858;52.308;20.994;2023-06-22T06:29:25;20.48;;;18.77;;
17482;SDS011;8858;52.308;20.994;2023-06-22T06:31:55;21.13;;;18.95;;
17482;SDS011;8858;52.308;20.994;2023-06-22T06:34:24;19.27;;;17.58;;
17482;SDS011;8858;52.308;20.994;2023-06-22T06:36:55;18.48;;;16.63;;
17482;SDS011;8858;52.308;20.994;2023-06-22T06:39:23;18.73;;;17.10;;
17482;SDS011;8858;52.308;20.994;2023-06-22T06:41:52;18.55;;;16.85;;
17482;SDS011;8858;52.308;20.994;2023-06-22T06:44:23;20.05;;;18.15;;
17482;SDS011;8858;52.308;20.994;2023-06-22T06:46:52;18.73;;;17.00;;
17482;SDS011;8858;52.308;20.994;2023-06-22T06:49:25;19.02;;;17.13;;
17482;SDS011;8858;52.308;20.994;2023-06-22T06:51:53;18.30;;;16.80;;
17482;SDS011;8858;52.308;20.994;2023-06-22T06:54:23;18.42;;;16.58;;
17482;SDS011;8858;52.308;20.994;2023-06-22T06:56:52;17.38;;;15.73;;
17482;SDS011;8858;52.308;20.994;2023-06-22T06:59:20;16.08;;;14.75;;
17482;SDS011;8858;52.308;20.994;2023-06-22T07:01:48;16.85;;;15.15;;
17482;SDS011;8858;52.308;20.994;2023-06-22T07:04:16;16.35;;;14.95;;
17482;SDS011;8858;52.308;20.994;2023-06-22T07:06:45;16.38;;;14.73;;
17482;SDS011;8858;52.308;20.994;2023-06-22T07:09:13;16.15;;;14.60;;
17482;SDS011;8858;52.308;20.994;2023-06-22T07:11:43;16.30;;;14.75;;
17482;SDS011;8858;52.308;20.994;2023-06-22T07:14:11;16.45;;;14.90;;
17482;SDS011;8858;52.308;20.994;2023-06-22T07:16:39;15.15;;;13.70;;
17482;SDS011;8858;52.308;20.994;2023-06-22T07:19:08;15.38;;;13.82;;
17482;SDS011;8858;52.308;20.994;2023-06-22T07:21:39;14.85;;;13.55;;
17482;SDS011;8858;52.308;20.994;2023-06-22T07:24:08;14.45;;;13.15;;
17482;SDS011;8858;52.308;20.994;2023-06-22T07:26:36;15.48;;;13.88;;
17482;SDS011;8858;52.308;20.994;2023-06-22T07:29:07;12.30;;;11.23;;
17482;SDS011;8858;52.308;20.994;2023-06-22T07:31:36;12.68;;;11.45;;
17482;SDS011;8858;52.308;20.994;2023-06-22T07:34:06;11.93;;;10.93;;
17482;SDS011;8858;52.308;20.994;2023-06-22T07:36:35;10.82;;;9.80;;
17482;SDS011;8858;52.308;20.994;2023-06-22T07:39:03;9.93;;;9.02;;
17482;SDS011;8858;52.308;20.994;2023-06-22T07:41:34;9.30;;;8.50;;
17482;SDS011;8858;52.308;20.994;2023-06-22T07:44:03;9.98;;;9.07;;
17482;SDS011;8858;52.308;20.994;2023-06-22T07:46:35;9.05;;;8.00;;
17482;SDS011;8858;52.308;20.994;2023-06-22T07:49:04;8.00;;;7.13;;
17482;SDS011;8858;52.308;20.994;2023-06-22T07:51:38;7.53;;;6.72;;
17482;SDS011;8858;52.308;20.994;2023-06-22T07:54:08;7.53;;;6.10;;
17482;SDS011;8858;52.308;20.994;2023-06-22T07:56:38;7.97;;;5.80;;
17482;SDS011;8858;52.308;20.994;2023-06-22T07:59:06;9.30;;;5.15;;
17482;SDS011;8858;52.308;20.994;2023-06-22T08:01:35;5.45;;;4.95;;
17482;SDS011;8858;52.308;20.994;2023-06-22T08:04:04;7.40;;;5.13;;
17482;SDS011;8858;52.308;20.994;2023-06-22T08:06:33;6.32;;;5.10;;
17482;SDS011;8858;52.308;20.994;2023-06-22T08:09:01;6.43;;;4.50;;
17482;SDS011;8858;52.308;20.994;2023-06-22T08:11:31;8.32;;;5.63;;
17482;SDS011;8858;52.308;20.994;2023-06-22T08:14:00;7.20;;;4.90;;
17482;SDS011;8858;52.308;20.994;2023-06-22T08:16:28;5.97;;;4.55;;
17482;SDS011;8858;52.308;20.994;2023-06-22T08:19:01;5.88;;;4.60;;
17482;SDS011;8858;52.308;20.994;2023-06-22T08:21:29;8.82;;;4.10;;
17482;SDS011;8858;52.308;20.994;2023-06-22T08:23:58;6.90;;;4.75;;
17482;SDS011;8858;52.308;20.994;2023-06-22T08:26:26;7.78;;;4.38;;
17482;SDS011;8858;52.308;20.994;2023-06-22T08:28:54;4.97;;;4.57;;
17482;SDS011;8858;52.308;20.994;2023-06-22T08:31:26;8.55;;;4.70;;
17482;SDS011;8858;52.308;20.994;2023-06-22T08:33:54;6.45;;;4.78;;
17482;SDS011;8858;52.308;20.994;2023-06-22T08:36:27;19.73;;;6.35;;
17482;SDS011;8858;52.308;20.994;2023-06-22T08:38:56;6.22;;;4.03;;
17482;SDS011;8858;52.308;20.994;2023-06-22T08:41:28;4.53;;;3.78;;
17482;SDS011;8858;52.308;20.994;2023-06-22T08:43:56;4.30;;;3.88;;
17482;SDS011;8858;52.308;20.994;2023-06-22T08:46:24;4.95;;;4.00;;
17482;SDS011;8858;52.308;20.994;2023-06-22T08:48:57;3.88;;;3.53;;
17482;SDS011;8858;52.308;20.994;2023-06-22T08:51:26;6.93;;;3.60;;
17482;SDS011;8858;52.308;20.994;2023-06-22T08:53:56;5.97;;;3.40;;
17482;SDS011;8858;52.308;20.994;2023-06-22T08:56:24;6.53;;;3.75;;
17482;SDS011;8858;52.308;20.994;2023-06-22T08:58:53;5.63;;;3.40;;
17482;SDS011;8858;52.308;20.994;2023-06-22T09:01:23;5.43;;;3.13;;
17482;SDS011;8858;52.308;20.994;2023-06-22T09:03:51;4.40;;;3.03;;
17482;SDS011;8858;52.308;20.994;2023-06-22T09:06:24;4.70;;;3.08;;
17482;SDS011;8858;52.308;20.994;2023-06-22T09:08:54;6.65;;;3.22;;
17482;SDS011;8858;52.308;20.994;2023-06-22T09:11:22;5.47;;;2.92;;
17482;SDS011;8858;52.308;20.994;2023-06-22T09:13:50;4.80;;;2.55;;
17482;SDS011;8858;52.308;20.994;2023-06-22T09:16:20;3.92;;;2.90;;
17482;SDS011;8858;52.308;20.994;2023-06-22T09:18:48;4.78;;;2.70;;
17482;SDS011;8858;52.308;20.994;2023-06-22T09:21:17;3.72;;;2.88;;
17482;SDS011;8858;52.308;20.994;2023-06-22T09:23:45;5.60;;;3.05;;
17482;SDS011;8858;52.308;20.994;2023-06-22T09:26:21;6.15;;;2.83;;
17482;SDS011;8858;52.308;20.994;2023-06-22T09:28:50;4.78;;;3.35;;
17482;SDS011;8858;52.308;20.994;2023-06-22T09:31:18;9.13;;;3.15;;
17482;SDS011;8858;52.308;20.994;2023-06-22T09:33:52;7.25;;;3.70;;
17482;SDS011;8858;52.308;20.994;2023-06-22T09:36:21;3.97;;;3.50;;
17482;SDS011;8858;52.308;20.994;2023-06-22T09:38:49;4.60;;;3.97;;
17482;SDS011;8858;52.308;20.994;2023-06-22T09:41:26;6.40;;;3.67;;
17482;SDS011;8858;52.308;20.994;2023-06-22T09:43:54;3.78;;;3.22;;
17482;SDS011;8858;52.308;20.994;2023-06-22T09:46:24;4.38;;;3.28;;
17482;SDS011;8858;52.308;20.994;2023-06-22T09:48:52;5.15;;;3.30;;
17482;SDS011;8858;52.308;20.994;2023-06-22T09:51:22;5.10;;;3.20;;
17482;SDS011;8858;52.308;20.994;2023-06-22T09:53:51;3.50;;;3.20;;
17482;SDS011;8858;52.308;20.994;2023-06-22T09:56:20;5.32;;;3.40;;
17482;SDS011;8858;52.308;20.994;2023-06-22T09:58:50;5.13;;;3.47;;
17482;SDS011;8858;52.308;20.994;2023-06-22T10:01:23;9.30;;;3.90;;
17482;SDS011;8858;52.308;20.994;2023-06-22T10:03:52;4.28;;;3.80;;
17482;SDS011;8858;52.308;20.994;2023-06-22T10:06:23;4.85;;;3.13;;
17482;SDS011;8858;52.308;20.994;2023-06-22T10:08:53;3.75;;;3.45;;
17482;SDS011;8858;52.308;20.994;2023-06-22T10:11:21;55.42;;;8.77;;
17482;SDS011;8858;52.308;20.994;2023-06-22T10:13:59;4.88;;;3.60;;
17482;SDS011;8858;52.308;20.994;2023-06-22T10:16:30;7.32;;;3.55;;
17482;SDS011;8858;52.308;20.994;2023-06-22T10:18:59;5.25;;;4.10;;
17482;SDS011;8858;52.308;20.994;2023-06-22T10:21:27;5.55;;;4.10;;
17482;SDS011;8858;52.308;20.994;2023-06-22T10:23:56;4.28;;;3.88;;
17482;SDS011;8858;52.308;20.994;2023-06-22T10:26:27;5.03;;;3.78;;
17482;SDS011;8858;52.308;20.994;2023-06-22T10:28:56;8.80;;;4.63;;
17482;SDS011;8858;52.308;20.994;2023-06-22T10:31:43;4.68;;;3.97;;
17482;SDS011;8858;52.308;20.994;2023-06-22T10:34:12;6.97;;;4.25;;
17482;SDS011;8858;52.308;20.994;2023-06-22T10:36:42;8.52;;;4.20;;
17482;SDS011;8858;52.308;20.994;2023-06-22T10:39:14;4.30;;;3.67;;
17482;SDS011;8858;52.308;20.994;2023-06-22T10:41:42;7.85;;;4.22;;
17482;SDS011;8858;52.308;20.994;2023-06-22T10:44:11;4.32;;;3.80;;
17482;SDS011;8858;52.308;20.994;2023-06-22T10:46:40;5.38;;;3.78;;
17482;SDS011;8858;52.308;20.994;2023-06-22T10:49:09;6.88;;;3.88;;
17482;SDS011;8858;52.308;20.994;2023-06-22T10:51:38;4.68;;;4.28;;
17482;SDS011;8858;52.308;20.994;2023-06-22T10:54:07;5.82;;;4.10;;
17482;SDS011;8858;52.308;20.994;2023-06-22T10:56:38;5.20;;;3.80;;
17482;SDS011;8858;52.308;20.994;2023-06-22T10:59:06;5.63;;;4.53;;
17482;SDS011;8858;52.308;20.994;2023-06-22T11:01:35;4.20;;;3.90;;
17482;SDS011;8858;52.308;20.994;2023-06-22T11:04:03;8.52;;;4.32;;
17482;SDS011;8858;52.308;20.994;2023-06-22T11:06:33;5.75;;;4.32;;
17482;SDS011;8858;52.308;20.994;2023-06-22T11:09:01;6.18;;;4.28;;
17482;SDS011;8858;52.308;20.994;2023-06-22T11:11:49;4.20;;;3.80;;
17482;SDS011;8858;52.308;20.994;2023-06-22T11:14:20;5.47;;;4.10;;
17482;SDS011;8858;52.308;20.994;2023-06-22T11:16:48;5.28;;;4.53;;
17482;SDS011;8858;52.308;20.994;2023-06-22T11:19:16;4.88;;;3.92;;
17482;SDS011;8858;52.308;20.994;2023-06-22T11:21:46;4.57;;;3.85;;
17482;SDS011;8858;52.308;20.994;2023-06-22T11:24:15;5.03;;;3.85;;
17482;SDS011;8858;52.308;20.994;2023-06-22T11:26:44;7.68;;;4.10;;
17482;SDS011;8858;52.308;20.994;2023-06-22T11:29:13;6.22;;;4.60;;
17482;SDS011;8858;52.308;20.994;2023-06-22T11:32:04;6.20;;;4.80;;
17482;SDS011;8858;52.308;20.994;2023-06-22T11:34:33;7.18;;;4.63;;
17482;SDS011;8858;52.308;20.994;2023-06-22T11:37:03;6.35;;;4.70;;
17482;SDS011;8858;52.308;20.994;2023-06-22T11:39:31;7.55;;;3.78;;
17482;SDS011;8858;52.308;20.994;2023-06-22T11:42:13;5.60;;;4.15;;
17482;SDS011;8858;52.308;20.994;2023-06-22T11:44:41;5.53;;;4.00;;
17482;SDS011;8858;52.308;20.994;2023-06-22T11:47:10;5.20;;;4.07;;
17482;SDS011;8858;52.308;20.994;2023-06-22T11:49:38;6.05;;;3.90;;
17482;SDS011;8858;52.308;20.994;2023-06-22T11:52:09;5.55;;;4.18;;
17482;SDS011;8858;52.308;20.994;2023-06-22T11:54:37;5.95;;;4.40;;
17482;SDS011;8858;52.308;20.994;2023-06-22T11:57:05;4.32;;;3.92;;
17482;SDS011;8858;52.308;20.994;2023-06-22T11:59:34;4.45;;;4.05;;
17482;SDS011;8858;52.308;20.994;2023-06-22T12:02:03;5.68;;;4.43;;
17482;SDS011;8858;52.308;20.994;2023-06-22T12:04:34;6.65;;;4.68;;
17482;SDS011;8858;52.308;20.994;2023-06-22T12:07:02;4.78;;;4.18;;
17482;SDS011;8858;52.308;20.994;2023-06-22T12:09:32;9.57;;;4.20;;
17482;SDS011;8858;52.308;20.994;2023-06-22T12:12:03;5.38;;;4.07;;
17482;SDS011;8858;52.308;20.994;2023-06-22T12:14:32;5.10;;;3.72;;
17482;SDS011;8858;52.308;20.994;2023-06-22T12:17:01;4.88;;;4.10;;
17482;SDS011;8858;52.308;20.994;2023-06-22T12:19:31;5.68;;;4.32;;
17482;SDS011;8858;52.308;20.994;2023-06-22T12:22:00;4.82;;;4.40;;
17482;SDS011;8858;52.308;20.994;2023-06-22T12:24:28;4.63;;;3.90;;
17482;SDS011;8858;52.308;20.994;2023-06-22T12:26:58;4.80;;;4.40;;
17482;SDS011;8858;52.308;20.994;2023-06-22T12:29:26;5.28;;;4.00;;
17482;SDS011;8858;52.308;20.994;2023-06-22T12:31:55;6.45;;;4.43;;
17482;SDS011;8858;52.308;20.994;2023-06-22T12:34:23;6.95;;;4.10;;
17482;SDS011;8858;52.308;20.994;2023-06-22T12:36:51;5.15;;;3.72;;
17482;SDS011;8858;52.308;20.994;2023-06-22T12:39:21;3.90;;;3.60;;
17482;SDS011;8858;52.308;20.994;2023-06-22T12:41:49;7.60;;;4.07;;
17482;SDS011;8858;52.308;20.994;2023-06-22T12:44:19;6.90;;;4.80;;
17482;SDS011;8858;52.308;20.994;2023-06-22T12:46:47;4.32;;;3.92;;
17482;SDS011;8858;52.308;20.994;2023-06-22T12:49:15;4.30;;;4.00;;
17482;SDS011;8858;52.308;20.994;2023-06-22T12:51:46;4.47;;;3.63;;
17482;SDS011;8858;52.308;20.994;2023-06-22T12:54:15;4.22;;;3.70;;
17482;SDS011;8858;52.308;20.994;2023-06-22T12:56:49;6.57;;;3.95;;
17482;SDS011;8858;52.308;20.994;2023-06-22T12:59:21;5.53;;;4.30;;
17482;SDS011;8858;52.308;20.994;2023-06-22T13:01:50;3.92;;;3.72;;
17482;SDS011;8858;52.308;20.994;2023-06-22T13:04:18;7.07;;;4.18;;
17482;SDS011;8858;52.308;20.994;2023-06-22T13:06:47;4.40;;;3.90;;
17482;SDS011;8858;52.308;20.994;2023-06-22T13:09:18;4.93;;;4.03;;
17482;SDS011;8858;52.308;20.994;2023-06-22T13:11:47;5.10;;;4.30;;
17482;SDS011;8858;52.308;20.994;2023-06-22T13:14:15;4.50;;;3.83;;
17482;SDS011;8858;52.308;20.994;2023-06-22T13:16:46;4.22;;;3.80;;
17482;SDS011;8858;52.308;20.994;2023-06-22T13:19:14;68.68;;;13.75;;
17482;SDS011;8858;52.308;20.994;2023-06-22T13:21:46;7.45;;;4.40;;
17482;SDS011;8858;52.308;20.994;2023-06-22T13:24:14;5.30;;;4.43;;
17482;SDS011;8858;52.308;20.994;2023-06-22T13:26:42;4.18;;;3.80;;
17482;SDS011;8858;52.308;20.994;2023-06-22T13:29:14;5.22;;;4.38;;
17482;SDS011;8858;52.308;20.994;2023-06-22T13:31:43;4.55;;;3.80;;
17482;SDS011;8858;52.308;20.994;2023-06-22T13:34:16;5.28;;;4.55;;
17482;SDS011;8858;52.308;20.994;2023-06-22T13:36:44;3.97;;;3.67;;
17482;SDS011;8858;52.308;20.994;2023-06-22T13:39:13;4.45;;;4.05;;
17482;SDS011;8858;52.308;20.994;2023-06-22T13:41:42;5.32;;;3.85;;
17482;SDS011;8858;52.308;20.994;2023-06-22T13:44:10;4.95;;;3.70;;
17482;SDS011;8858;52.308;20.994;2023-06-22T13:46:42;7.00;;;3.65;;
17482;SDS011;8858;52.308;20.994;2023-06-22T13:49:11;6.07;;;4.10;;
17482;SDS011;8858;52.308;20.994;2023-06-22T13:51:41;4.53;;;4.13;;
17482;SDS011;8858;52.308;20.994;2023-06-22T13:54:09;5.80;;;4.43;;
17482;SDS011;8858;52.308;20.994;2023-06-22T13:56:58;4.40;;;4.10;;
17482;SDS011;8858;52.308;20.994;2023-06-22T13:59:26;8.70;;;4.07;;
17482;SDS011;8858;52.308;20.994;2023-06-22T14:01:54;4.75;;;3.50;;
17482;SDS011;8858;52.308;20.994;2023-06-22T14:04:23;4.30;;;3.90;;
17482;SDS011;8858;52.308;20.994;2023-06-22T14:06:53;4.60;;;3.83;;
17482;SDS011;8858;52.308;20.994;2023-06-22T14:09:23;3.90;;;3.60;;
17482;SDS011;8858;52.308;20.994;2023-06-22T14:11:53;3.47;;;3.28;;
17482;SDS011;8858;52.308;20.994;2023-06-22T14:14:22;3.97;;;3.65;;
17482;SDS011;8858;52.308;20.994;2023-06-22T14:16:50;3.83;;;3.60;;
17482;SDS011;8858;52.308;20.994;2023-06-22T14:19:18;5.88;;;3.75;;
17482;SDS011;8858;52.308;20.994;2023-06-22T14:21:47;4.95;;;3.78;;
17482;SDS011;8858;52.308;20.994;2023-06-22T14:24:17;3.60;;;3.40;;
17482;SDS011;8858;52.308;20.994;2023-06-22T14:26:49;5.65;;;3.70;;
17482;SDS011;8858;52.308;20.994;2023-06-22T14:29:18;4.80;;;3.50;;
17482;SDS011;8858;52.308;20.994;2023-06-22T14:31:47;3.83;;;3.50;;
17482;SDS011;8858;52.308;20.994;2023-06-22T14:34:16;3.70;;;3.47;;
17482;SDS011;8858;52.308;20.994;2023-06-22T14:36:44;4.40;;;4.00;;
17482;SDS011;8858;52.308;20.994;2023-06-22T14:39:13;4.72;;;3.95;;
17482;SDS011;8858;52.308;20.994;2023-06-22T14:41:47;5.18;;;3.50;;
17482;SDS011;8858;52.308;20.994;2023-06-22T14:44:16;4.45;;;3.40;;
17482;SDS011;8858;52.308;20.994;2023-06-22T14:46:45;4.07;;;3.53;;
17482;SDS011;8858;52.308;20.994;2023-06-22T14:49:13;3.42;;;3.10;;
17482;SDS011;8858;52.308;20.994;2023-06-22T14:51:41;3.10;;;2.90;;